Time;durP1;ratioP1;P1;durP2;ratioP2;P2;SDS_P1;SDS_P2;PMS_P1;PMS_P2;Temp;Humidity;BMP_temperature;BMP_pressure;BME280_temperature;BME280_humidity;BME280_pressure;Samples;Min_cycle;Max_cycle;Signal;HPM_P1;HPM_P2
2022/07/18 00:01:00;;;;;;;3.70;2.93;;;18.20;59.40;;;;;;5205868;28;20656;-50
2022/07/18 00:03:30;;;;;;;5.30;2.27;;;18.20;59.20;;;;;;5221157;28;20187;-50
2022/07/18 00:06:01;;;;;;;10.93;2.73;;;18.20;59.20;;;;;;5212464;28;20198;-53
2022/07/18 00:08:31;;;;;;;2.17;1.97;;;18.30;59.20;;;;;;5213661;28;20298;-51
2022/07/18 00:11:02;;;;;;;9.60;2.47;;;18.30;59.00;;;;;;5218661;28;20225;-49
2022/07/18 00:13:33;;;;;;;1.70;1.60;;;18.30;58.70;;;;;;5190651;28;20187;-50
2022/07/18 00:16:03;;;;;;;2.50;2.30;;;18.30;58.50;;;;;;5220565;28;20635;-51
2022/07/18 00:18:34;;;;;;;1.67;1.57;;;18.30;58.40;;;;;;5207443;28;20241;-50
2022/07/18 00:21:05;;;;;;;1.60;1.50;;;18.30;58.20;;;;;;5218661;28;20750;-50
2022/07/18 00:23:35;;;;;;;7.90;2.00;;;18.30;58.40;;;;;;5220164;28;20175;-49
2022/07/18 00:26:06;;;;;;;1.80;1.70;;;18.30;58.30;;;;;;5218359;28;21160;-50
2022/07/18 00:28:37;;;;;;;2.20;1.80;;;18.30;58.30;;;;;;5204204;28;20218;-50
2022/07/18 00:31:07;;;;;;;1.77;1.67;;;18.30;58.20;;;;;;5211403;28;20579;-51
2022/07/18 00:33:38;;;;;;;2.30;1.60;;;18.30;58.20;;;;;;5217350;28;20187;-50
2022/07/18 00:36:08;;;;;;;1.83;1.67;;;18.30;58.20;;;;;;5204546;28;20195;-51
2022/07/18 00:38:39;;;;;;;2.30;1.63;;;18.30;58.20;;;;;;5199336;28;20202;-51
2022/07/18 00:41:13;;;;;;;4.07;1.87;;;18.30;58.30;;;;;;5209072;28;20223;-51
2022/07/18 00:43:43;;;;;;;4.30;2.40;;;18.30;58.60;;;;;;5211156;28;20191;-49
2022/07/18 00:46:14;;;;;;;2.00;1.83;;;18.30;58.70;;;;;;5221917;28;20450;-48
2022/07/18 00:48:45;;;;;;;5.17;1.80;;;18.20;58.80;;;;;;5216607;28;20210;-52
2022/07/18 00:51:16;;;;;;;3.53;1.90;;;18.20;59.00;;;;;;5210525;28;20208;-51
2022/07/18 00:53:48;;;;;;;3.13;1.57;;;18.10;59.20;;;;;;5221520;28;20183;-49
2022/07/18 00:56:19;;;;;;;2.30;1.67;;;18.10;59.40;;;;;;5208176;28;20433;-48
2022/07/18 00:58:50;;;;;;;2.73;1.57;;;18.00;59.60;;;;;;5211820;28;20453;-50
2022/07/18 01:04:16;;;;;;;3.07;2.17;;;17.90;59.90;;;;;;5218694;28;20185;-50
2022/07/18 01:06:49;;;;;;;5.60;1.60;;;17.90;60.20;;;;;;5216795;28;20465;-48
2022/07/18 01:09:20;;;;;;;1.53;1.53;;;17.90;60.50;;;;;;5201889;28;20441;-50
2022/07/18 01:11:50;;;;;;;1.53;1.43;;;17.80;60.60;;;;;;5208013;28;20930;-51
2022/07/18 01:14:21;;;;;;;2.90;1.80;;;17.80;60.90;;;;;;5203565;28;20218;-50
2022/07/18 01:16:52;;;;;;;2.03;1.83;;;17.70;60.90;;;;;;5219213;28;20188;-50
2022/07/18 01:19:22;;;;;;;3.43;1.70;;;17.70;61.20;;;;;;5203007;28;20253;-49
2022/07/18 01:21:53;;;;;;;4.73;1.27;;;17.70;61.60;;;;;;5204985;28;20202;-49
2022/07/18 01:24:24;;;;;;;1.63;1.50;;;17.70;61.90;;;;;;5204040;28;20182;-49
2022/07/18 01:26:54;;;;;;;2.27;2.13;;;17.60;62.10;;;;;;5215434;28;20212;-53
2022/07/18 01:29:25;;;;;;;6.83;3.40;;;17.60;62.30;;;;;;5210235;28;20318;-50
2022/07/18 01:31:56;;;;;;;2.37;2.27;;;17.50;62.50;;;;;;5210960;28;20195;-50
2022/07/18 01:34:26;;;;;;;1.60;1.50;;;17.50;62.60;;;;;;5190831;28;20179;-50
2022/07/18 01:36:57;;;;;;;2.17;1.93;;;17.50;62.90;;;;;;5220807;28;20639;-49
2022/07/18 01:39:28;;;;;;;5.83;2.60;;;17.40;63.30;;;;;;5207968;28;20194;-50
2022/07/18 01:42:04;;;;;;;6.10;1.90;;;17.40;63.50;;;;;;5197095;28;20889;-49
2022/07/18 01:44:36;;;;;;;1.63;1.33;;;17.30;63.60;;;;;;5213922;28;20289;-51
2022/07/18 01:47:08;;;;;;;1.87;1.63;;;17.20;63.60;;;;;;5207175;28;20949;-50
2022/07/18 01:49:40;;;;;;;2.77;1.87;;;17.20;64.10;;;;;;5215797;28;20460;-50
2022/07/18 01:52:10;;;;;;;2.40;1.80;;;17.10;64.30;;;;;;5218494;28;20481;-50
2022/07/18 01:54:41;;;;;;;3.27;1.97;;;17.00;64.80;;;;;;5190528;28;20646;-49
2022/07/18 01:57:12;;;;;;;3.00;1.70;;;17.00;65.00;;;;;;5192148;28;20713;-48
2022/07/18 01:59:42;;;;;;;4.73;2.10;;;16.90;65.30;;;;;;5203328;28;20617;-50
2022/07/18 02:02:13;;;;;;;4.83;1.80;;;16.80;65.60;;;;;;5209369;28;20255;-49
2022/07/18 02:04:59;;;;;;;1.97;1.80;;;16.80;66.60;;;;;;5214626;28;20215;-50
2022/07/18 02:07:35;;;;;;;1.83;1.73;;;16.70;66.30;;;;;;5220766;28;20195;-49
2022/07/18 02:10:18;;;;;;;2.00;1.67;;;16.70;66.80;;;;;;5210274;28;20437;-51
2022/07/18 02:12:49;;;;;;;2.20;1.47;;;16.60;67.20;;;;;;5203692;28;20490;-50
2022/07/18 02:15:20;;;;;;;1.97;1.80;;;16.50;67.70;;;;;;5202096;28;20433;-48
2022/07/18 02:17:51;;;;;;;1.27;1.17;;;16.40;68.20;;;;;;5215196;28;20183;-49
2022/07/18 02:20:21;;;;;;;4.20;1.83;;;16.40;68.60;;;;;;5209265;28;20294;-50
2022/07/18 02:22:52;;;;;;;3.17;1.67;;;16.30;69.00;;;;;;5219731;28;20548;-50
2022/07/18 02:25:23;;;;;;;1.80;1.70;;;16.30;69.80;;;;;;5215615;28;20196;-49
2022/07/18 02:27:53;;;;;;;5.20;1.80;;;16.30;70.70;;;;;;5196237;28;20207;-50
2022/07/18 02:30:24;;;;;;;5.03;1.70;;;16.20;71.40;;;;;;5202049;28;20214;-49
2022/07/18 02:32:55;;;;;;;1.50;1.40;;;16.20;72.40;;;;;;5223641;28;20290;-49
2022/07/18 02:35:25;;;;;;;4.00;1.80;;;16.10;72.90;;;;;;5221706;28;20555;-49
2022/07/18 02:37:56;;;;;;;1.53;1.23;;;16.00;74.10;;;;;;5223594;28;20251;-50
2022/07/18 02:40:27;;;;;;;1.67;1.57;;;16.00;75.20;;;;;;5213656;28;20244;-49
2022/07/18 02:42:57;;;;;;;3.87;1.90;;;15.90;76.20;;;;;;5211593;28;20541;-50
2022/07/18 02:45:28;;;;;;;5.27;1.80;;;15.90;77.60;;;;;;5183038;28;20179;-50
2022/07/18 02:47:59;;;;;;;2.10;1.90;;;15.80;78.90;;;;;;5216720;28;20489;-50
2022/07/18 02:50:30;;;;;;;1.60;1.53;;;15.80;81.20;;;;;;5221165;28;20607;-50
2022/07/18 02:53:00;;;;;;;5.53;1.83;;;15.80;82.20;;;;;;5213027;28;20184;-48
2022/07/18 02:55:31;;;;;;;1.70;1.60;;;15.80;83.80;;;;;;5210627;28;20186;-50
2022/07/18 02:58:02;;;;;;;1.60;1.50;;;15.70;85.00;;;;;;5209408;28;20352;-50
2022/07/18 03:00:32;;;;;;;3.27;1.80;;;15.60;86.60;;;;;;5217162;28;20222;-49
2022/07/18 03:03:03;;;;;;;3.57;1.83;;;15.60;88.70;;;;;;5207615;28;20187;-50
2022/07/18 03:05:34;;;;;;;2.30;2.10;;;15.60;89.50;;;;;;5208105;28;20603;-49
2022/07/18 03:08:04;;;;;;;2.00;1.70;;;15.60;90.60;;;;;;5218767;28;20509;-50
2022/07/18 03:10:35;;;;;;;1.53;1.53;;;15.50;91.10;;;;;;5215434;28;20233;-49
2022/07/18 03:13:05;;;;;;;5.47;1.90;;;15.50;91.80;;;;;;5214601;28;20194;-50
2022/07/18 03:15:36;;;;;;;1.40;1.40;;;15.50;92.50;;;;;;5210482;28;20179;-50
2022/07/18 03:18:07;;;;;;;3.07;2.60;;;15.50;93.30;;;;;;5204275;28;20198;-49
2022/07/18 03:20:37;;;;;;;3.13;2.10;;;15.50;94.10;;;;;;5203823;28;20229;-51
2022/07/18 03:23:08;;;;;;;2.37;2.17;;;15.50;94.40;;;;;;5203343;28;20191;-49
2022/07/18 03:25:39;;;;;;;2.10;1.90;;;15.60;95.20;;;;;;5213361;28;20924;-51
2022/07/18 03:28:09;;;;;;;3.30;1.70;;;15.50;95.70;;;;;;5221672;28;20218;-49
2022/07/18 03:30:40;;;;;;;5.00;1.40;;;15.50;96.00;;;;;;5210366;28;20206;-49
2022/07/18 03:33:11;;;;;;;3.50;1.87;;;15.50;96.10;;;;;;5204180;28;20206;-50
2022/07/18 03:35:41;;;;;;;2.77;2.43;;;15.60;96.50;;;;;;5213965;28;20199;-50
2022/07/18 03:38:12;;;;;;;1.93;1.83;;;15.60;96.70;;;;;;5210938;28;20600;-49
2022/07/18 03:40:42;;;;;;;5.00;2.03;;;15.60;96.90;;;;;;5218947;28;20344;-51
2022/07/18 03:43:13;;;;;;;1.53;1.53;;;15.70;97.20;;;;;;5214515;28;20328;-51
2022/07/18 03:45:43;;;;;;;2.07;1.97;;;15.70;97.30;;;;;;5214134;28;20198;-51
2022/07/18 03:48:14;;;;;;;1.73;1.30;;;15.70;97.50;;;;;;5224684;28;20342;-51
2022/07/18 03:50:45;;;;;;;2.97;2.50;;;15.70;97.70;;;;;;5216022;28;20222;-53
2022/07/18 03:53:16;;;;;;;3.67;2.10;;;15.80;98.20;;;;;;5224074;28;20433;-52
2022/07/18 03:55:46;;;;;;;8.43;2.03;;;15.80;98.30;;;;;;5207143;28;20188;-49
2022/07/18 03:58:17;;;;;;;1.70;1.60;;;15.80;98.50;;;;;;5215758;28;20266;-50
2022/07/18 04:00:48;;;;;;;2.63;2.33;;;15.80;98.60;;;;;;5209740;28;20578;-50
2022/07/18 04:03:18;;;;;;;5.43;2.57;;;15.90;98.90;;;;;;5204674;28;20187;-52
2022/07/18 04:05:49;;;;;;;5.30;2.50;;;16.00;99.20;;;;;;5219384;28;20555;-52
2022/07/18 04:08:20;;;;;;;3.43;3.00;;;16.00;99.10;;;;;;5204928;28;20588;-52
2022/07/18 04:10:50;;;;;;;9.60;4.30;;;16.10;98.70;;;;;;5208648;28;20269;-51
2022/07/18 04:13:21;;;;;;;2.53;2.03;;;16.20;98.40;;;;;;5226046;28;20627;-51
2022/07/18 04:15:52;;;;;;;1.87;1.73;;;16.30;97.60;;;;;;5185493;28;20199;-51
2022/07/18 04:18:22;;;;;;;4.50;2.17;;;16.50;97.00;;;;;;5221299;28;20196;-53
2022/07/18 04:20:53;;;;;;;3.30;2.80;;;16.60;96.70;;;;;;5216529;28;20234;-51
2022/07/18 04:23:23;;;;;;;4.33;2.50;;;16.70;96.00;;;;;;5205084;28;20265;-52
2022/07/18 04:25:54;;;;;;;2.93;2.23;;;16.80;95.50;;;;;;5211728;28;20191;-52
2022/07/18 04:28:25;;;;;;;2.60;2.10;;;16.90;95.20;;;;;;5218783;28;20246;-51
2022/07/18 04:30:55;;;;;;;7.10;2.53;;;17.00;94.90;;;;;;5214677;28;20211;-52
2022/07/18 04:33:26;;;;;;;4.43;2.50;;;17.10;94.50;;;;;;5209727;28;21523;-52
2022/07/18 04:35:56;;;;;;;2.40;2.27;;;17.20;94.00;;;;;;5221481;28;20788;-51
2022/07/18 04:38:30;;;;;;;5.20;2.97;;;17.20;93.40;;;;;;5213740;28;20187;-52
2022/07/18 04:41:01;;;;;;;4.30;3.30;;;17.20;93.40;;;;;;5210187;28;20567;-51
2022/07/18 04:43:33;;;;;;;8.03;2.30;;;17.30;93.00;;;;;;5211451;28;20507;-52
2022/07/18 04:46:03;;;;;;;10.60;2.40;;;17.30;92.80;;;;;;5225507;28;20476;-51
2022/07/18 04:48:34;;;;;;;3.10;2.30;;;17.40;93.00;;;;;;5202256;28;20655;-51
2022/07/18 04:51:05;;;;;;;7.80;3.10;;;17.50;92.80;;;;;;5211630;28;20293;-51
2022/07/18 04:53:35;;;;;;;6.87;3.00;;;17.70;92.50;;;;;;5200244;28;20293;-52
2022/07/18 04:56:06;;;;;;;3.10;2.80;;;18.10;92.00;;;;;;5219332;28;20233;-53
2022/07/18 04:58:36;;;;;;;5.93;3.47;;;18.80;90.60;;;;;;5216813;28;20262;-52
2022/07/18 05:01:07;;;;;;;4.10;3.03;;;19.50;86.70;;;;;;5200303;28;20202;-52
2022/07/18 05:03:37;;;;;;;6.43;2.57;;;20.10;82.80;;;;;;5190958;28;20218;-51
2022/07/18 05:06:08;;;;;;;3.10;2.00;;;20.70;79.20;;;;;;5197753;28;20187;-52
2022/07/18 05:08:39;;;;;;;2.60;2.40;;;21.20;75.50;;;;;;5203515;28;20210;-53
2022/07/18 05:11:09;;;;;;;3.43;2.70;;;21.60;71.80;;;;;;5215788;28;20200;-52
2022/07/18 05:13:40;;;;;;;4.20;2.53;;;22.00;67.90;;;;;;5193974;28;20217;-53
2022/07/18 05:16:11;;;;;;;2.47;1.90;;;22.60;64.50;;;;;;5212077;28;20705;-52
2022/07/18 05:18:41;;;;;;;6.67;2.87;;;23.20;61.20;;;;;;5221613;28;20213;-53
2022/07/18 05:21:12;;;;;;;3.57;2.33;;;23.90;58.70;;;;;;5215399;28;20271;-53
2022/07/18 05:23:42;;;;;;;1.87;1.77;;;24.50;56.50;;;;;;5216782;28;20274;-53
2022/07/18 05:26:13;;;;;;;2.20;1.80;;;25.20;54.50;;;;;;5203868;28;20178;-52
2022/07/18 05:28:44;;;;;;;6.80;2.80;;;26.20;51.70;;;;;;5221724;28;20211;-51
2022/07/18 05:31:14;;;;;;;6.23;2.10;;;27.30;48.50;;;;;;5220709;28;20533;-53
2022/07/18 05:33:45;;;;;;;2.33;2.20;;;28.50;45.70;;;;;;5212883;28;20209;-54
2022/07/18 05:36:15;;;;;;;2.73;2.43;;;29.80;43.10;;;;;;5219114;28;20229;-55
2022/07/18 05:38:46;;;;;;;2.50;1.60;;;31.20;40.20;;;;;;5199659;28;20186;-54
2022/07/18 05:41:16;;;;;;;1.83;1.73;;;32.40;37.50;;;;;;5218424;28;20380;-53
2022/07/18 05:43:47;;;;;;;3.30;2.40;;;33.60;35.10;;;;;;5213493;28;20191;-54
2022/07/18 05:46:18;;;;;;;4.73;2.30;;;34.70;33.20;;;;;;5214521;28;20178;-53
2022/07/18 05:48:48;;;;;;;2.55;2.35;;;35.40;31.70;;;;;;5211943;28;20260;-53
2022/07/18 05:51:19;;;;;;;2.10;1.88;;;35.80;30.50;;;;;;5185096;28;20748;-53
2022/07/18 05:53:50;;;;;;;1.88;1.77;;;36.20;29.90;;;;;;5208497;28;20312;-55
2022/07/18 05:56:20;;;;;;;5.28;1.55;;;36.50;29.10;;;;;;5190093;28;20194;-54
2022/07/18 05:58:51;;;;;;;2.08;1.92;;;36.70;28.60;;;;;;5191477;28;20182;-54
2022/07/18 06:01:21;;;;;;;2.15;1.85;;;36.90;28.30;;;;;;5223229;28;20210;-53
2022/07/18 06:03:52;;;;;;;1.45;1.35;;;36.80;27.90;;;;;;5206549;28;20197;-54
2022/07/18 06:06:24;;;;;;;1.88;1.60;;;37.00;28.20;;;;;;5219556;28;20273;-56
2022/07/18 06:08:54;;;;;;;2.13;2.03;;;37.50;27.80;;;;;;5218620;28;20694;-54
2022/07/18 06:11:25;;;;;;;2.28;2.08;;;38.00;26.70;;;;;;5219594;28;20210;-54
2022/07/18 06:13:56;;;;;;;2.70;1.67;;;38.40;26.70;;;;;;5201741;28;20217;-55
2022/07/18 06:16:27;;;;;;;2.80;1.95;;;38.80;26.40;;;;;;5212904;28;20189;-53
2022/07/18 06:18:58;;;;;;;2.78;2.22;;;39.10;25.90;;;;;;5204947;28;20665;-54
2022/07/18 06:21:29;;;;;;;2.17;1.98;;;38.80;25.10;;;;;;5221989;28;20210;-55
2022/07/18 06:24:00;;;;;;;6.35;1.50;;;38.50;25.90;;;;;;5200315;28;20181;-54
2022/07/18 06:26:30;;;;;;;5.45;1.90;;;38.40;25.90;;;;;;5192384;28;20185;-54
2022/07/18 06:29:01;;;;;;;1.65;1.55;;;37.80;25.80;;;;;;5194436;28;20838;-54
2022/07/18 06:31:32;;;;;;;2.45;1.90;;;36.90;26.90;;;;;;5209407;28;20273;-54
2022/07/18 06:34:02;;;;;;;3.22;1.83;;;36.90;26.80;;;;;;5202306;28;20199;-54
2022/07/18 06:36:33;;;;;;;4.50;2.45;;;37.30;26.90;;;;;;5218152;28;20201;-54
2022/07/18 06:39:10;;;;;;;1.98;1.80;;;38.00;26.30;;;;;;5212271;28;20170;-53
2022/07/18 06:41:41;;;;;;;14.73;2.70;;;38.50;26.00;;;;;;5195948;28;20210;-54
2022/07/18 06:44:11;;;;;;;2.05;1.83;;;38.90;25.70;;;;;;5187978;28;20198;-54
2022/07/18 06:46:42;;;;;;;4.85;2.65;;;39.30;25.30;;;;;;5194006;28;20251;-53
2022/07/18 06:49:13;;;;;;;5.55;2.22;;;39.70;24.80;;;;;;5215187;28;20197;-54
2022/07/18 06:51:43;;;;;;;9.07;2.97;;;39.70;24.80;;;;;;5212108;28;20206;-53
2022/07/18 06:54:14;;;;;;;2.72;2.13;;;39.40;25.00;;;;;;5198161;28;20196;-55
2022/07/18 06:56:44;;;;;;;3.28;1.92;;;39.70;24.80;;;;;;5208214;28;20179;-53
2022/07/18 06:59:15;;;;;;;3.70;2.25;;;39.40;24.00;;;;;;5217250;28;20232;-54
2022/07/18 07:01:46;;;;;;;2.97;1.50;;;38.80;24.80;;;;;;5224251;28;20344;-54
2022/07/18 07:04:16;;;;;;;2.45;2.35;;;38.60;25.20;;;;;;5220881;28;20185;-53
2022/07/18 07:06:47;;;;;;;1.98;1.60;;;38.50;24.60;;;;;;5214756;28;20692;-53
2022/07/18 07:09:17;;;;;;;8.32;1.58;;;38.40;25.20;;;;;;5213462;28;20190;-54
2022/07/18 07:11:48;;;;;;;2.28;1.48;;;38.90;25.10;;;;;;5216777;28;20559;-53
2022/07/18 07:14:19;;;;;;;1.75;1.65;;;38.10;24.70;;;;;;5218458;28;20198;-53
2022/07/18 07:16:49;;;;;;;3.00;2.00;;;38.60;24.70;;;;;;5217727;28;20619;-53
2022/07/18 07:19:20;;;;;;;2.92;1.48;;;38.40;24.80;;;;;;5217798;28;20291;-54
2022/07/18 07:21:50;;;;;;;3.33;1.73;;;38.90;24.50;;;;;;5213020;28;20198;-54
2022/07/18 07:24:21;;;;;;;1.65;1.58;;;38.40;24.40;;;;;;5204486;28;20186;-54
2022/07/18 07:26:52;;;;;;;1.80;1.45;;;38.90;24.70;;;;;;5206664;28;20205;-53
2022/07/18 07:29:23;;;;;;;1.35;1.30;;;39.10;24.10;;;;;;5220519;28;20293;-54
2022/07/18 07:31:54;;;;;;;1.40;1.20;;;39.80;23.60;;;;;;5223071;28;20201;-54
2022/07/18 07:34:24;;;;;;;5.30;1.70;;;40.10;23.00;;;;;;5198823;28;20190;-54
2022/07/18 07:36:55;;;;;;;6.78;1.48;;;40.20;23.00;;;;;;5212004;28;20659;-54
2022/07/18 07:39:26;;;;;;;7.53;1.67;;;40.80;22.80;;;;;;5199436;28;20191;-53
2022/07/18 07:41:56;;;;;;;2.70;1.38;;;41.30;22.60;;;;;;5205110;28;20226;-53
2022/07/18 07:44:27;;;;;;;5.50;1.88;;;41.20;22.10;;;;;;5197922;28;20183;-54
2022/07/18 07:46:59;;;;;;;1.35;1.13;;;41.60;22.00;;;;;;5217554;28;20217;-53
2022/07/18 07:49:33;;;;;;;2.42;1.60;;;41.40;21.70;;;;;;5219758;28;20201;-54
2022/07/18 07:52:04;;;;;;;20.05;2.10;;;40.60;22.60;;;;;;5213945;28;20198;-54
2022/07/18 07:54:34;;;;;;;2.30;1.70;;;40.90;22.10;;;;;;5198297;28;20209;-55
2022/07/18 07:57:06;;;;;;;1.67;1.58;;;40.90;22.30;;;;;;5179261;28;20187;-55
2022/07/18 07:59:36;;;;;;;3.30;1.48;;;40.60;22.00;;;;;;5208339;28;20190;-55
2022/07/18 08:02:08;;;;;;;1.92;1.30;;;40.50;22.40;;;;;;5215545;28;20210;-54
2022/07/18 08:04:38;;;;;;;1.92;0.90;;;40.50;22.00;;;;;;5196975;28;20193;-55
2022/07/18 08:07:09;;;;;;;1.42;1.33;;;40.50;22.10;;;;;;5216867;28;20210;-56
2022/07/18 08:09:40;;;;;;;1.38;1.27;;;39.80;22.30;;;;;;5204933;28;20190;-54
2022/07/18 08:12:10;;;;;;;3.10;1.30;;;40.30;22.30;;;;;;5223711;28;21035;-54
2022/07/18 08:14:42;;;;;;;1.73;1.63;;;40.40;22.20;;;;;;5212038;28;20188;-55
2022/07/18 08:17:12;;;;;;;7.75;1.67;;;40.70;22.00;;;;;;5223617;28;20219;-54
2022/07/18 08:19:43;;;;;;;3.13;1.50;;;40.10;21.80;;;;;;5199906;28;20201;-55
2022/07/18 08:22:13;;;;;;;2.67;1.35;;;39.40;23.10;;;;;;5219162;28;20206;-55
2022/07/18 08:24:44;;;;;;;1.42;1.40;;;39.00;23.10;;;;;;5212750;28;20194;-54
2022/07/18 08:27:14;;;;;;;2.15;1.85;;;39.20;22.90;;;;;;5198885;28;20203;-54
2022/07/18 08:29:45;;;;;;;2.15;1.73;;;38.50;23.20;;;;;;5215708;28;20178;-53
2022/07/18 08:32:16;;;;;;;2.60;2.40;;;37.10;23.40;;;;;;5201161;28;20209;-52
2022/07/18 08:34:47;;;;;;;3.63;2.08;;;36.10;25.00;;;;;;5204210;28;20560;-54
2022/07/18 08:37:17;;;;;;;2.15;1.80;;;35.30;25.90;;;;;;5205018;28;20654;-53
2022/07/18 08:39:48;;;;;;;2.65;1.90;;;34.10;26.70;;;;;;5204165;28;20178;-56
2022/07/18 08:42:23;;;;;;;2.73;1.43;;;33.30;27.50;;;;;;5212403;28;20363;-53
2022/07/18 08:44:55;;;;;;;3.37;2.30;;;32.50;28.00;;;;;;5204358;28;20182;-53
2022/07/18 08:47:31;;;;;;;3.53;2.10;;;31.40;28.40;;;;;;5221147;28;20214;-54
2022/07/18 08:50:02;;;;;;;2.30;2.20;;;31.10;29.20;;;;;;5216287;28;20268;-54
2022/07/18 08:52:35;;;;;;;3.30;3.00;;;31.30;28.60;;;;;;5207901;28;20429;-53
2022/07/18 08:55:10;;;;;;;2.80;2.60;;;31.50;27.60;;;;;;5222999;28;20175;-54
2022/07/18 08:57:41;;;;;;;6.20;3.33;;;31.50;28.20;;;;;;5207203;28;20438;-53
2022/07/18 09:00:12;;;;;;;5.20;3.60;;;30.70;29.90;;;;;;5185353;28;20512;-54
2022/07/18 09:02:43;;;;;;;2.57;2.37;;;30.10;30.00;;;;;;5218212;28;20195;-52
2022/07/18 09:05:19;;;;;;;4.50;2.20;;;29.80;30.60;;;;;;5191707;28;20436;-54
2022/07/18 09:07:50;;;;;;;4.73;3.40;;;29.50;31.80;;;;;;5219197;28;20531;-54
2022/07/18 09:10:21;;;;;;;2.70;2.50;;;29.10;31.30;;;;;;5207425;28;20491;-53
2022/07/18 09:12:58;;;;;;;4.27;2.87;;;29.20;32.10;;;;;;5197910;28;20187;-55
2022/07/18 09:15:29;;;;;;;3.90;1.67;;;29.40;32.30;;;;;;5201319;28;20183;-54
2022/07/18 09:18:00;;;;;;;2.00;1.83;;;29.60;32.40;;;;;;5208428;28;20507;-54
2022/07/18 09:20:30;;;;;;;4.57;2.17;;;29.60;32.70;;;;;;5184540;28;20219;-53
2022/07/18 09:23:12;;;;;;;1.77;1.67;;;29.60;33.00;;;;;;5203734;28;20546;-53
2022/07/18 09:25:43;;;;;;;2.90;1.70;;;29.60;33.00;;;;;;5204093;28;20225;-53
2022/07/18 09:28:14;;;;;;;8.30;2.40;;;29.60;32.90;;;;;;5205067;28;20979;-55
2022/07/18 09:30:44;;;;;;;6.30;2.00;;;29.70;33.70;;;;;;5219440;28;20213;-52
2022/07/18 09:33:16;;;;;;;8.57;1.70;;;29.70;33.30;;;;;;5186510;28;20651;-53
2022/07/18 09:35:54;;;;;;;4.73;2.50;;;29.80;33.20;;;;;;5215904;28;20176;-54
2022/07/18 09:38:29;;;;;;;2.30;2.10;;;29.70;33.00;;;;;;5197643;28;20441;-51
2022/07/18 09:41:00;;;;;;;2.10;1.60;;;29.40;32.90;;;;;;5212976;28;20525;-51
2022/07/18 09:43:37;;;;;;;4.33;2.27;;;29.20;33.80;;;;;;5216402;28;20446;-52
2022/07/18 09:46:08;;;;;;;3.63;2.60;;;28.90;33.10;;;;;;5208113;28;20186;-51
2022/07/18 09:48:38;;;;;;;5.90;2.67;;;28.40;33.20;;;;;;5204890;28;20450;-51
2022/07/18 09:51:10;;;;;;;2.00;1.80;;;28.50;33.50;;;;;;5216584;28;20229;-50
2022/07/18 09:53:45;;;;;;;2.53;2.33;;;28.50;33.50;;;;;;5196632;28;20180;-53
2022/07/18 09:56:25;;;;;;;2.60;2.50;;;28.80;33.60;;;;;;5205451;28;20436;-52
2022/07/18 09:58:56;;;;;;;3.53;2.20;;;29.20;33.00;;;;;;5214092;28;20477;-53
2022/07/18 10:01:28;;;;;;;3.17;2.00;;;29.20;32.50;;;;;;5223082;28;20484;-51
2022/07/18 10:04:00;;;;;;;3.77;2.40;;;29.00;33.00;;;;;;5207924;28;20453;-51
2022/07/18 10:06:31;;;;;;;3.03;2.83;;;29.10;33.40;;;;;;5220955;28;20452;-51
2022/07/18 10:09:02;;;;;;;4.67;3.27;;;29.10;33.20;;;;;;5220917;28;20480;-55
2022/07/18 10:11:32;;;;;;;2.20;2.10;;;29.20;32.90;;;;;;5226309;28;20452;-53
2022/07/18 10:14:03;;;;;;;5.70;2.70;;;29.20;32.70;;;;;;5180479;28;20186;-51
2022/07/18 10:16:35;;;;;;;2.60;2.40;;;28.90;33.30;;;;;;5188723;28;20476;-51
2022/07/18 10:19:05;;;;;;;6.77;3.63;;;28.10;33.30;;;;;;5181336;28;20249;-51
2022/07/18 10:21:37;;;;;;;10.90;3.73;;;28.10;33.90;;;;;;5200516;28;20460;-50
2022/07/18 10:24:08;;;;;;;2.50;2.30;;;28.00;35.00;;;;;;5187248;28;20183;-52
2022/07/18 10:26:39;;;;;;;1.40;1.40;;;28.20;34.50;;;;;;5202284;28;20859;-52
2022/07/18 10:29:19;;;;;;;6.60;2.73;;;28.20;34.00;;;;;;5213656;28;20496;-51
2022/07/18 10:32:02;;;;;;;2.93;1.93;;;28.50;34.00;;;;;;5198647;28;20709;-53
2022/07/18 10:34:35;;;;;;;4.73;2.37;;;29.10;33.90;;;;;;5198235;28;20436;-51
2022/07/18 10:37:07;;;;;;;6.20;2.30;;;29.40;33.30;;;;;;5198722;28;20437;-53
2022/07/18 10:39:44;;;;;;;3.13;2.80;;;29.60;32.70;;;;;;5207872;28;20449;-51
2022/07/18 10:42:18;;;;;;;2.53;2.33;;;30.00;31.10;;;;;;5211595;28;20509;-52
2022/07/18 10:44:49;;;;;;;3.23;2.30;;;29.80;31.60;;;;;;5199354;28;20476;-50
2022/07/18 10:47:27;;;;;;;2.70;2.53;;;30.00;31.60;;;;;;5216206;28;20493;-52
2022/07/18 10:49:57;;;;;;;3.43;3.17;;;30.10;31.80;;;;;;5197712;28;20170;-53
2022/07/18 10:52:35;;;;;;;2.30;2.10;;;30.20;31.30;;;;;;5218950;28;20461;-52
2022/07/18 10:55:05;;;;;;;3.57;2.47;;;30.00;31.10;;;;;;5214030;28;20468;-52
2022/07/18 10:57:37;;;;;;;2.73;2.53;;;29.30;31.80;;;;;;5204068;28;20522;-51
2022/07/18 11:00:13;;;;;;;5.40;3.00;;;29.10;32.20;;;;;;5213701;28;20179;-51
2022/07/18 11:03:02;;;;;;;7.50;4.43;;;28.80;33.30;;;;;;5215249;28;20449;-52
2022/07/18 11:05:34;;;;;;;9.33;2.90;;;28.90;33.00;;;;;;5200250;28;20945;-54
2022/07/18 11:08:09;;;;;;;4.23;3.00;;;28.60;32.50;;;;;;5197569;28;20556;-52
2022/07/18 11:11:16;;;;;;;2.27;2.17;;;28.20;33.30;;;;;;5217394;28;20873;-53
2022/07/18 11:13:48;;;;;;;3.17;2.77;;;28.20;33.40;;;;;;5210909;28;20442;-53
2022/07/18 11:16:24;;;;;;;4.93;2.90;;;28.20;33.20;;;;;;5212418;28;20429;-54
2022/07/18 11:18:54;;;;;;;5.00;3.47;;;28.20;33.50;;;;;;5213898;28;20456;-52
2022/07/18 11:21:27;;;;;;;10.03;4.00;;;28.30;34.10;;;;;;5217276;28;20462;-52
2022/07/18 11:24:09;;;;;;;2.97;2.50;;;28.70;33.90;;;;;;5214001;28;20607;-52
2022/07/18 11:26:47;;;;;;;2.30;2.20;;;29.00;33.50;;;;;;5210791;28;20592;-50
2022/07/18 11:29:20;;;;;;;8.97;2.70;;;29.20;31.80;;;;;;5212651;28;20521;-51
2022/07/18 11:31:51;;;;;;;6.80;2.50;;;29.10;32.20;;;;;;5221400;28;20473;-50
2022/07/18 11:34:23;;;;;;;2.80;2.60;;;29.10;32.60;;;;;;5221969;28;20475;-51
2022/07/18 11:36:54;;;;;;;6.30;3.00;;;29.00;33.10;;;;;;5205125;28;20235;-51
2022/07/18 11:39:31;;;;;;;1.70;1.70;;;29.00;32.10;;;;;;5212431;28;20937;-54
2022/07/18 11:42:02;;;;;;;5.33;2.50;;;28.90;32.60;;;;;;5217744;28;20693;-51
2022/07/18 11:44:32;;;;;;;4.23;3.33;;;28.80;32.60;;;;;;5216416;28;20543;-52
2022/07/18 11:47:09;;;;;;;3.57;2.60;;;28.50;33.10;;;;;;5202816;28;20465;-51
2022/07/18 11:49:40;;;;;;;5.30;2.27;;;28.40;33.10;;;;;;5220779;28;20180;-52
2022/07/18 11:52:10;;;;;;;1.77;1.67;;;28.20;32.90;;;;;;5219409;28;20457;-52
2022/07/18 11:54:41;;;;;;;2.37;2.27;;;28.30;34.20;;;;;;5180269;28;20180;-51
2022/07/18 11:57:12;;;;;;;3.90;2.07;;;28.30;33.70;;;;;;5202179;28;20186;-50
2022/07/18 11:59:45;;;;;;;3.90;2.57;;;28.50;33.30;;;;;;5220641;28;20206;-53
2022/07/18 12:02:16;;;;;;;5.17;2.30;;;28.70;33.30;;;;;;5219952;28;20215;-54
2022/07/18 12:04:46;;;;;;;2.50;2.40;;;28.90;33.30;;;;;;5216384;28;20948;-54
2022/07/18 12:07:23;;;;;;;2.77;2.50;;;29.00;32.50;;;;;;5212584;28;20306;-49
2022/07/18 12:09:55;;;;;;;3.20;2.90;;;29.00;32.90;;;;;;5227284;28;20206;-51
2022/07/18 12:12:26;;;;;;;2.63;2.43;;;28.90;33.00;;;;;;5220938;28;20445;-51
2022/07/18 12:15:03;;;;;;;6.83;2.60;;;28.90;33.10;;;;;;5204806;28;20977;-52
2022/07/18 12:17:45;;;;;;;2.30;1.90;;;29.10;32.60;;;;;;5206689;28;20186;-52
2022/07/18 12:20:17;;;;;;;1.90;1.80;;;29.00;32.30;;;;;;5219987;28;20789;-53
2022/07/18 12:23:13;;;;;;;2.37;2.07;;;28.70;32.80;;;;;;5201664;28;20433;-52
2022/07/18 12:25:57;;;;;;;2.37;2.17;;;28.50;33.20;;;;;;5211816;28;20482;-53
2022/07/18 12:28:28;;;;;;;5.03;2.20;;;28.50;33.20;;;;;;5205623;28;20472;-53
2022/07/18 12:30:59;;;;;;;2.47;2.37;;;28.60;33.00;;;;;;5200220;28;20452;-52
2022/07/18 12:33:30;;;;;;;4.03;3.30;;;28.90;32.80;;;;;;5204207;28;20438;-52
2022/07/18 12:36:01;;;;;;;5.37;3.63;;;29.00;32.90;;;;;;5197824;28;20443;-50
2022/07/18 12:38:32;;;;;;;3.10;2.80;;;29.30;33.20;;;;;;5214741;28;20210;-51
2022/07/18 12:41:03;;;;;;;3.50;2.97;;;29.50;32.30;;;;;;5205342;28;20630;-51
2022/07/18 12:43:36;;;;;;;2.70;2.50;;;29.60;32.00;;;;;;5206994;28;20207;-51
2022/07/18 12:46:09;;;;;;;3.23;2.97;;;29.90;32.20;;;;;;5202776;28;20762;-53
2022/07/18 12:48:40;;;;;;;3.27;2.37;;;30.10;32.20;;;;;;5207780;28;20473;-52
2022/07/18 12:51:11;;;;;;;11.00;3.87;;;30.40;31.40;;;;;;5204050;28;20460;-51
2022/07/18 12:53:43;;;;;;;3.73;2.93;;;30.50;31.20;;;;;;5214912;28;20232;-51
2022/07/18 12:56:13;;;;;;;3.10;2.87;;;30.80;31.20;;;;;;5186675;28;20951;-53
2022/07/18 12:58:44;;;;;;;8.67;3.03;;;30.80;30.00;;;;;;5202293;28;20452;-51
2022/07/18 13:01:14;;;;;;;2.50;2.03;;;30.50;30.30;;;;;;5219600;28;20202;-51
2022/07/18 13:03:45;;;;;;;7.43;3.90;;;30.40;30.90;;;;;;5210365;28;20194;-54
2022/07/18 13:06:16;;;;;;;3.03;2.30;;;30.50;31.30;;;;;;5212436;28;20699;-52
2022/07/18 13:08:46;;;;;;;5.83;2.70;;;30.50;30.70;;;;;;5187295;28;20206;-53
2022/07/18 13:11:17;;;;;;;3.40;3.10;;;30.90;30.10;;;;;;5197121;28;20318;-52